createdAt,value
2019-05-13T00:00:41.704Z,369.10
2019-05-13T00:01:43.447Z,379.60
2019-05-13T00:02:43.598Z,381.70
2019-05-13T00:03:43.969Z,379.40
2019-05-13T00:04:43.660Z,377.80
2019-05-13T00:05:41.455Z,377.10
2019-05-13T00:06:51.289Z,381.80
2019-05-13T00:07:43.836Z,378.60
2019-05-13T00:08:43.848Z,375.40
2019-05-13T00:09:44.105Z,385.40
2019-05-13T00:10:43.520Z,377.50
2019-05-13T00:11:43.614Z,377.50
2019-05-13T00:12:41.375Z,378.40
2019-05-13T00:13:41.341Z,380.00
2019-05-13T00:14:43.399Z,378.40
2019-05-13T00:15:44.085Z,384.50
2019-05-13T00:16:41.396Z,383.50
2019-05-13T00:17:41.295Z,383.20
2019-05-13T00:18:41.309Z,380.10
2019-05-13T00:19:41.282Z,386.10
2019-05-13T00:20:41.262Z,371.60
2019-05-13T00:21:41.319Z,378.40
2019-05-13T00:22:41.242Z,386.20
2019-05-13T00:23:41.240Z,375.30
2019-05-13T00:24:41.220Z,371.40
2019-05-13T00:25:41.206Z,376.10
2019-05-13T00:26:41.234Z,369.80
2019-05-13T00:27:41.185Z,376.10
2019-05-13T00:28:41.178Z,374.10
2019-05-13T00:29:41.179Z,368.30
2019-05-13T00:30:41.167Z,368.30
2019-05-13T00:31:41.183Z,374.00
2019-05-13T00:32:41.145Z,368.00
2019-05-13T00:33:41.121Z,365.10
2019-05-13T00:34:41.121Z,365.60
2019-05-13T00:35:41.108Z,365.40
2019-05-13T00:36:41.127Z,369.60
2019-05-13T00:37:41.086Z,364.10
2019-05-13T00:38:41.085Z,361.40
2019-05-13T00:39:41.062Z,358.20
2019-05-13T00:40:41.071Z,356.80
2019-05-13T00:41:41.117Z,357.90
2019-05-13T00:42:41.028Z,357.30
2019-05-13T00:43:41.059Z,356.30
2019-05-13T00:44:41.004Z,361.30
2019-05-13T00:45:40.996Z,352.60
2019-05-13T00:46:41.036Z,355.20
2019-05-13T00:47:43.434Z,356.10
2019-05-13T00:48:40.970Z,350.00
2019-05-13T00:49:41.004Z,346.90
2019-05-13T00:50:40.941Z,349.40
2019-05-13T00:51:40.993Z,346.70
2019-05-13T00:52:40.916Z,347.10
2019-05-13T00:53:40.917Z,343.80
2019-05-13T00:54:40.932Z,340.50
2019-05-13T00:55:40.897Z,345.50
2019-05-13T00:56:43.444Z,342.80
2019-05-13T00:57:43.445Z,339.60
2019-05-13T00:58:40.863Z,344.60
2019-05-13T00:59:40.850Z,333.70
2019-05-13T01:00:40.835Z,342.30
2019-05-13T01:01:40.823Z,347.60
2019-05-13T01:02:40.850Z,334.30
2019-05-13T01:03:40.819Z,335.00
2019-05-13T01:04:40.806Z,335.10
2019-05-13T01:05:40.798Z,331.20
2019-05-13T01:06:43.371Z,335.20
2019-05-13T01:07:40.781Z,329.50
2019-05-13T01:08:40.788Z,331.00
2019-05-13T01:09:40.766Z,331.10
2019-05-13T01:10:40.733Z,329.50
2019-05-13T01:11:40.801Z,322.90
2019-05-13T01:12:40.732Z,325.90
2019-05-13T01:13:40.691Z,327.80
2019-05-13T01:14:40.689Z,327.80
2019-05-13T01:15:40.675Z,322.10
2019-05-13T01:16:40.673Z,323.20
2019-05-13T01:17:40.695Z,322.10
2019-05-13T01:18:40.693Z,317.30
2019-05-13T01:19:40.639Z,319.10
2019-05-13T01:20:40.617Z,319.00
2019-05-13T01:21:40.613Z,316.10
2019-05-13T01:22:40.645Z,323.20
2019-05-13T01:23:40.635Z,316.30
2019-05-13T01:24:40.580Z,311.10
2019-05-13T01:25:40.615Z,311.10
2019-05-13T01:26:40.552Z,311.00
2019-05-13T01:27:40.552Z,310.50
2019-05-13T01:28:40.614Z,308.80
2019-05-13T01:29:40.522Z,307.30
2019-05-13T01:30:40.514Z,306.70
2019-05-13T01:31:40.498Z,310.00
2019-05-13T01:32:40.491Z,306.20
2019-05-13T01:33:40.514Z,298.40
2019-05-13T01:34:40.474Z,296.20
2019-05-13T01:35:40.461Z,301.80
2019-05-13T01:36:40.467Z,300.50
2019-05-13T01:37:43.353Z,298.50
2019-05-13T01:38:43.628Z,296.80
2019-05-13T01:39:40.483Z,295.50
2019-05-13T01:40:40.401Z,295.30
2019-05-13T01:41:40.405Z,294.60
2019-05-13T01:42:40.391Z,289.50
2019-05-13T01:43:40.397Z,288.70
2019-05-13T01:44:40.371Z,293.00
2019-05-13T01:45:40.346Z,294.70
2019-05-13T01:46:40.337Z,288.90
2019-05-13T01:47:40.347Z,287.10
2019-05-13T01:48:40.343Z,286.40
2019-05-13T01:49:40.305Z,284.30
2019-05-13T01:50:40.341Z,285.00
2019-05-13T01:51:40.290Z,287.80
2019-05-13T01:52:40.279Z,281.50
2019-05-13T01:53:40.330Z,279.50
2019-05-13T01:54:40.248Z,277.80
2019-05-13T01:55:40.242Z,281.40
2019-05-13T01:56:44.163Z,279.40
2019-05-13T01:57:40.235Z,280.00
2019-05-13T01:58:40.231Z,274.70
2019-05-13T01:59:40.201Z,275.60
2019-05-13T02:00:40.187Z,270.30
2019-05-13T02:01:40.209Z,268.60
2019-05-13T02:02:40.169Z,270.30
2019-05-13T02:03:40.184Z,266.00
2019-05-13T02:04:40.201Z,275.60
2019-05-13T02:05:40.129Z,271.50
2019-05-13T02:06:40.127Z,271.90
2019-05-13T02:07:53.749Z,265.90
2019-05-13T02:08:41.106Z,265.20
2019-05-13T02:09:40.119Z,266.40
2019-05-13T02:10:40.082Z,260.60
2019-05-13T02:11:40.065Z,258.90
2019-05-13T02:12:40.094Z,255.50
2019-05-13T02:13:40.100Z,254.60
2019-05-13T02:14:40.056Z,255.40
2019-05-13T02:15:40.068Z,255.10
2019-05-13T02:16:40.027Z,258.30
2019-05-13T02:17:40.006Z,257.60
2019-05-13T02:18:40.010Z,258.10
2019-05-13T02:19:40.020Z,254.30
2019-05-13T02:20:39.977Z,255.80
2019-05-13T02:21:39.988Z,249.90
2019-05-13T02:22:39.946Z,250.90
2019-05-13T02:23:39.960Z,248.10
2019-05-13T02:24:40.019Z,251.80
2019-05-13T02:25:39.926Z,252.70
2019-05-13T02:26:39.916Z,250.20
2019-05-13T02:27:39.898Z,244.60
2019-05-13T02:28:39.883Z,242.60
2019-05-13T02:29:39.916Z,243.10
2019-05-13T02:30:39.860Z,242.90
2019-05-13T02:31:47.636Z,241.20
2019-05-13T02:32:42.745Z,239.20
2019-05-13T02:33:42.359Z,241.10
2019-05-13T02:34:43.296Z,237.30
2019-05-13T02:35:43.076Z,240.00
2019-05-13T02:36:43.621Z,241.60
2019-05-13T02:37:43.417Z,239.90
2019-05-13T02:38:42.719Z,238.90
2019-05-13T02:39:42.665Z,237.30
2019-05-13T02:40:42.900Z,233.50
2019-05-13T02:41:42.878Z,239.30
2019-05-13T02:42:43.244Z,229.40
2019-05-13T02:43:44.255Z,235.20
2019-05-13T02:44:43.639Z,237.10
2019-05-13T02:45:42.682Z,229.40
2019-05-13T02:46:39.701Z,228.40
2019-05-13T02:47:39.753Z,231.90
2019-05-13T02:48:42.211Z,226.90
2019-05-13T02:49:42.121Z,234.10
2019-05-13T02:50:39.690Z,225.10
2019-05-13T02:51:42.974Z,230.50
2019-05-13T02:52:39.623Z,227.00
2019-05-13T02:53:39.610Z,221.70
2019-05-13T02:54:42.472Z,227.80
2019-05-13T02:55:43.432Z,231.70
2019-05-13T02:56:42.244Z,232.00
2019-05-13T02:57:43.245Z,227.70
2019-05-13T02:58:42.901Z,220.20
2019-05-13T02:59:42.029Z,221.80
2019-05-13T03:00:43.805Z,223.20
2019-05-13T03:01:39.526Z,218.70
2019-05-13T03:02:39.527Z,218.40
2019-05-13T03:03:39.514Z,218.70
2019-05-13T03:04:43.097Z,214.80
2019-05-13T03:05:42.632Z,220.60
2019-05-13T03:06:39.475Z,212.70
2019-05-13T03:07:42.538Z,214.60
2019-05-13T03:08:49.171Z,217.30
2019-05-13T03:09:42.254Z,214.70
2019-05-13T03:10:39.466Z,212.60
2019-05-13T03:11:42.311Z,211.40
2019-05-13T03:12:42.257Z,208.40
2019-05-13T03:13:42.381Z,209.00
2019-05-13T03:14:45.067Z,208.30
2019-05-13T03:15:42.833Z,207.80
2019-05-13T03:16:42.624Z,208.00
2019-05-13T03:17:39.365Z,205.30
2019-05-13T03:18:39.343Z,205.20
2019-05-13T03:19:39.363Z,207.80
2019-05-13T03:20:39.327Z,204.40
2019-05-13T03:21:42.796Z,203.70
2019-05-13T03:22:39.308Z,204.60
2019-05-13T03:23:39.290Z,199.80
2019-05-13T03:24:42.725Z,202.20
2019-05-13T03:25:42.727Z,203.70
2019-05-13T03:26:42.535Z,200.30
2019-05-13T03:27:42.538Z,201.80
2019-05-13T03:28:39.242Z,199.60
2019-05-13T03:29:39.219Z,195.80
2019-05-13T03:30:39.256Z,197.20
2019-05-13T03:31:45.239Z,196.70
2019-05-13T03:32:50.054Z,193.40
2019-05-13T03:33:45.350Z,194.00
2019-05-13T03:34:44.753Z,198.50
2019-05-13T03:35:45.337Z,191.70
2019-05-13T03:36:45.555Z,192.50
2019-05-13T03:37:42.422Z,193.20
2019-05-13T03:38:55.608Z,194.40
2019-05-13T03:39:43.184Z,187.60
2019-05-13T03:40:42.204Z,189.00
2019-05-13T03:41:42.093Z,189.70
2019-05-13T03:42:42.304Z,186.00
2019-05-13T03:43:39.073Z,191.20
2019-05-13T03:44:39.073Z,188.90
2019-05-13T03:45:39.050Z,187.50
2019-05-13T03:46:42.332Z,185.20
2019-05-13T03:47:42.016Z,181.50
2019-05-13T03:48:42.475Z,184.10
2019-05-13T03:49:39.011Z,179.30
2019-05-13T03:50:39.010Z,186.20
2019-05-13T03:51:39.014Z,180.90
2019-05-13T03:52:39.003Z,179.50
2019-05-13T03:53:39.017Z,178.10
2019-05-13T03:54:38.958Z,176.00
2019-05-13T03:55:38.951Z,177.10
2019-05-13T03:56:42.419Z,177.60
2019-05-13T03:57:42.345Z,179.60
2019-05-13T03:58:38.937Z,175.40
2019-05-13T03:59:38.914Z,180.80
2019-05-13T04:00:38.889Z,174.10
2019-05-13T04:01:38.895Z,176.00
2019-05-13T04:02:38.984Z,172.00
2019-05-13T04:03:38.873Z,178.10
2019-05-13T04:04:42.112Z,176.10
2019-05-13T04:05:38.858Z,173.10
2019-05-13T04:06:38.831Z,171.90
2019-05-13T04:07:38.822Z,171.90
2019-05-13T04:08:38.826Z,169.10
2019-05-13T04:09:42.121Z,168.50
2019-05-13T04:10:41.942Z,168.80
2019-05-13T04:11:41.586Z,168.60
2019-05-13T04:12:42.364Z,166.90
2019-05-13T04:13:38.753Z,166.60
2019-05-13T04:14:38.744Z,168.50
2019-05-13T04:15:38.774Z,168.20
2019-05-13T04:16:38.722Z,167.00
2019-05-13T04:17:38.757Z,166.60
2019-05-13T04:18:38.718Z,161.50
2019-05-13T04:19:38.724Z,164.20
2019-05-13T04:20:38.697Z,162.70
2019-05-13T04:21:38.672Z,163.20
2019-05-13T04:22:38.652Z,159.00
2019-05-13T04:23:38.691Z,164.60
2019-05-13T04:24:38.634Z,159.30
2019-05-13T04:25:39.936Z,158.80
2019-05-13T04:26:43.016Z,160.90
2019-05-13T04:27:38.642Z,156.20
2019-05-13T04:28:38.625Z,158.40
2019-05-13T04:29:38.625Z,156.70
2019-05-13T04:30:38.564Z,156.90
2019-05-13T04:31:38.555Z,155.90
2019-05-13T04:32:38.558Z,152.30
2019-05-13T04:33:38.573Z,156.50
2019-05-13T04:34:38.537Z,154.30
2019-05-13T04:35:38.509Z,151.60
2019-05-13T04:36:38.549Z,151.40
2019-05-13T04:37:38.546Z,156.00
2019-05-13T04:38:38.584Z,149.40
2019-05-13T04:39:47.652Z,151.90
2019-05-13T04:40:42.471Z,151.70
2019-05-13T04:41:38.456Z,149.20
2019-05-13T04:42:38.453Z,147.60
2019-05-13T04:43:38.466Z,146.90
2019-05-13T04:44:38.422Z,149.90
2019-05-13T04:45:38.411Z,144.90
2019-05-13T04:46:38.407Z,147.20
2019-05-13T04:47:38.390Z,147.40
2019-05-13T04:48:40.569Z,144.10
2019-05-13T04:49:42.625Z,145.80
2019-05-13T04:50:38.353Z,142.80
2019-05-13T04:51:38.349Z,146.70
2019-05-13T04:52:38.327Z,147.10
2019-05-13T04:53:38.353Z,147.00
2019-05-13T04:54:38.346Z,144.50
2019-05-13T04:55:38.327Z,140.60
2019-05-13T04:56:38.300Z,144.70
2019-05-13T04:57:38.327Z,143.00
2019-05-13T04:58:38.302Z,141.60
2019-05-13T04:59:41.304Z,138.90
2019-05-13T05:00:42.338Z,141.50
2019-05-13T05:01:40.275Z,141.00
2019-05-13T05:02:48.477Z,141.30
2019-05-13T05:03:44.884Z,137.10
2019-05-13T05:04:39.243Z,136.30
2019-05-13T05:05:38.203Z,135.40
2019-05-13T05:06:38.182Z,135.70
2019-05-13T05:07:38.178Z,137.00
2019-05-13T05:08:38.218Z,135.60
2019-05-13T05:09:42.901Z,135.10
2019-05-13T05:10:42.637Z,135.50
2019-05-13T05:11:38.173Z,133.10
2019-05-13T05:12:38.119Z,133.40
2019-05-13T05:13:38.107Z,132.40
2019-05-13T05:14:38.165Z,131.10
2019-05-13T05:15:38.088Z,131.20
2019-05-13T05:16:41.995Z,126.30
2019-05-13T05:17:39.072Z,127.10
2019-05-13T05:18:38.055Z,125.00
2019-05-13T05:19:38.077Z,123.60
2019-05-13T05:20:38.134Z,126.10
2019-05-13T05:21:38.038Z,123.60
2019-05-13T05:22:38.018Z,124.00
2019-05-13T05:23:37.996Z,123.60
2019-05-13T05:24:37.994Z,126.60
2019-05-13T05:25:38.018Z,120.80
2019-05-13T05:26:37.968Z,128.90
2019-05-13T05:27:37.958Z,120.70
2019-05-13T05:28:37.950Z,121.60
2019-05-13T05:29:37.929Z,120.70
2019-05-13T05:30:37.949Z,120.00
2019-05-13T05:31:37.924Z,118.60
2019-05-13T05:32:37.902Z,117.30
2019-05-13T05:33:37.906Z,116.40
2019-05-13T05:34:37.876Z,116.20
2019-05-13T05:35:37.902Z,115.90
2019-05-13T05:36:37.915Z,114.20
2019-05-13T05:37:37.849Z,119.70
2019-05-13T05:38:37.840Z,114.90
2019-05-13T05:39:37.835Z,112.60
2019-05-13T05:40:37.838Z,111.60
2019-05-13T05:41:37.825Z,113.30
2019-05-13T05:42:37.798Z,112.70
2019-05-13T05:43:37.778Z,113.90
2019-05-13T05:44:37.797Z,112.60
2019-05-13T05:45:37.792Z,109.60
2019-05-13T05:46:37.780Z,109.40
2019-05-13T05:47:37.751Z,109.30
2019-05-13T05:48:37.723Z,105.10
2019-05-13T05:49:37.719Z,108.60
2019-05-13T05:50:37.724Z,105.90
2019-05-13T05:51:37.729Z,105.70
2019-05-13T05:52:37.690Z,104.00
2019-05-13T05:53:37.718Z,104.60
2019-05-13T05:54:37.667Z,104.90
2019-05-13T05:55:37.716Z,102.60
2019-05-13T05:56:37.638Z,105.70
2019-05-13T05:57:37.635Z,102.10
2019-05-13T05:58:37.647Z,102.80
2019-05-13T05:59:37.609Z,102.70
2019-05-13T06:00:37.614Z,104.00
2019-05-13T06:01:37.636Z,100.50
2019-05-13T06:02:37.581Z,99.90
2019-05-13T06:03:37.564Z,103.30
2019-05-13T06:04:37.612Z,99.30
2019-05-13T06:05:37.580Z,100.70
2019-05-13T06:06:37.543Z,99.70
2019-05-13T06:07:37.564Z,99.80
2019-05-13T06:08:37.507Z,101.30
2019-05-13T06:09:37.520Z,100.00
2019-05-13T06:10:48.992Z,96.00
2019-05-13T06:11:38.515Z,94.00
2019-05-13T06:12:37.505Z,98.10
2019-05-13T06:13:37.462Z,93.50
2019-05-13T06:14:37.450Z,93.60
2019-05-13T06:15:37.457Z,89.00
2019-05-13T06:16:37.452Z,88.00
2019-05-13T06:17:37.412Z,86.60
2019-05-13T06:18:37.417Z,86.30
2019-05-13T06:19:37.399Z,89.80
2019-05-13T06:20:37.389Z,84.40
2019-05-13T06:21:37.428Z,85.30
2019-05-13T06:22:37.388Z,84.80
2019-05-13T06:23:37.377Z,84.90
2019-05-13T06:24:37.341Z,84.80
2019-05-13T06:25:37.328Z,86.10
2019-05-13T06:26:37.376Z,82.10
2019-05-13T06:27:37.310Z,86.50
2019-05-13T06:28:37.298Z,79.80
2019-05-13T06:29:37.302Z,81.40
2019-05-13T06:30:37.271Z,81.80
2019-05-13T06:31:37.262Z,81.30
2019-05-13T06:32:37.326Z,81.40
2019-05-13T06:33:37.249Z,78.20
2019-05-13T06:34:37.237Z,80.90
2019-05-13T06:35:37.219Z,77.40
2019-05-13T06:36:37.209Z,76.40
2019-05-13T06:37:37.241Z,78.10
2019-05-13T06:38:37.190Z,77.10
2019-05-13T06:39:37.182Z,76.20
2019-05-13T06:40:37.215Z,76.20
2019-05-13T06:41:37.164Z,73.00
2019-05-13T06:42:37.189Z,77.80
2019-05-13T06:43:37.176Z,75.40
2019-05-13T06:44:37.126Z,76.30
2019-05-13T06:45:37.110Z,73.50
2019-05-13T06:46:37.142Z,75.30
2019-05-13T06:47:37.130Z,76.50
2019-05-13T06:48:37.095Z,73.20
2019-05-13T06:49:37.119Z,73.50
2019-05-13T06:50:37.059Z,73.80
2019-05-13T06:51:37.058Z,74.20
2019-05-13T06:52:37.098Z,71.20
2019-05-13T06:53:37.042Z,73.20
2019-05-13T06:54:37.054Z,70.40
2019-05-13T06:55:37.027Z,73.60
2019-05-13T06:56:36.998Z,71.50
2019-05-13T06:57:37.018Z,71.20
2019-05-13T06:58:36.982Z,70.40
2019-05-13T06:59:36.961Z,71.40
2019-05-13T07:00:37.020Z,71.60
2019-05-13T07:01:36.947Z,70.80
2019-05-13T07:02:36.954Z,70.30
2019-05-13T07:03:36.921Z,69.50
2019-05-13T07:04:36.905Z,69.80
2019-05-13T07:05:36.901Z,68.00
2019-05-13T07:06:36.888Z,67.80
2019-05-13T07:07:36.877Z,68.10
2019-05-13T07:08:36.902Z,69.60
2019-05-13T07:09:36.853Z,68.10
2019-05-13T07:10:36.843Z,70.60
2019-05-13T07:11:36.884Z,68.20
2019-05-13T07:12:36.930Z,67.10
2019-05-13T07:13:36.807Z,67.10
2019-05-13T07:14:36.797Z,68.00
2019-05-13T07:15:36.812Z,65.70
2019-05-13T07:16:36.792Z,66.30
2019-05-13T07:17:36.771Z,65.00
2019-05-13T07:18:36.782Z,66.70
2019-05-13T07:19:36.743Z,68.60
2019-05-13T07:20:36.735Z,66.00
2019-05-13T07:21:36.723Z,65.50
2019-05-13T07:22:36.717Z,65.30
2019-05-13T07:23:36.739Z,65.20
2019-05-13T07:24:36.687Z,65.10
2019-05-13T07:25:36.677Z,63.00
2019-05-13T07:26:36.670Z,62.10
2019-05-13T07:27:36.664Z,64.60
2019-05-13T07:28:36.691Z,64.00
2019-05-13T07:29:36.633Z,63.20
2019-05-13T07:30:36.625Z,63.20
2019-05-13T07:31:36.620Z,60.80
2019-05-13T07:32:36.609Z,60.80
2019-05-13T07:33:36.640Z,61.70
2019-05-13T07:34:36.600Z,63.60
2019-05-13T07:35:38.013Z,63.10
2019-05-13T07:36:36.560Z,63.40
2019-05-13T07:37:36.552Z,60.70
2019-05-13T07:38:36.567Z,62.20
2019-05-13T07:39:36.541Z,60.30
2019-05-13T07:40:36.518Z,60.90
2019-05-13T07:41:39.570Z,60.40
2019-05-13T07:42:37.500Z,60.20
2019-05-13T07:43:36.516Z,60.20
2019-05-13T07:44:36.480Z,61.10
2019-05-13T07:45:36.463Z,60.50
2019-05-13T07:46:36.458Z,59.80
2019-05-13T07:47:36.456Z,59.10
2019-05-13T07:48:36.463Z,61.30
2019-05-13T07:49:36.421Z,60.10
2019-05-13T07:50:51.233Z,60.70
2019-05-13T07:51:37.405Z,59.30
2019-05-13T07:52:36.395Z,57.80
2019-05-13T07:53:36.405Z,59.30
2019-05-13T07:54:36.367Z,57.00
2019-05-13T07:55:36.356Z,60.30
2019-05-13T07:56:36.368Z,58.70
2019-05-13T07:57:36.372Z,58.50
2019-05-13T07:58:37.786Z,57.40
2019-05-13T07:59:36.338Z,57.50
2019-05-13T08:00:36.314Z,56.70
2019-05-13T08:01:36.309Z,57.90
2019-05-13T08:02:36.295Z,58.20
2019-05-13T08:03:36.311Z,57.00
2019-05-13T08:04:36.285Z,56.50
2019-05-13T08:05:36.249Z,57.20
2019-05-13T08:06:36.252Z,56.80
2019-05-13T08:07:36.239Z,56.90
2019-05-13T08:08:36.242Z,54.30
2019-05-13T08:09:36.240Z,57.40
2019-05-13T08:10:36.192Z,55.60
2019-05-13T08:11:54.558Z,55.60
2019-05-13T08:12:37.174Z,55.10
2019-05-13T08:13:36.202Z,54.60
2019-05-13T08:14:36.190Z,54.90
2019-05-13T08:15:36.146Z,53.60
2019-05-13T08:16:36.132Z,54.70
2019-05-13T08:17:36.122Z,55.20
2019-05-13T08:18:36.112Z,53.90
2019-05-13T08:19:36.125Z,54.10
2019-05-13T08:20:36.089Z,53.10
2019-05-13T08:21:36.083Z,54.70
2019-05-13T08:22:36.066Z,53.40
2019-05-13T08:23:36.059Z,53.30
2019-05-13T08:24:36.096Z,54.00
2019-05-13T08:25:36.039Z,52.40
2019-05-13T08:26:38.160Z,52.80
2019-05-13T08:27:37.016Z,51.70
2019-05-13T08:28:36.004Z,51.70
2019-05-13T08:29:36.034Z,51.50
2019-05-13T08:30:36.012Z,51.70
2019-05-13T08:31:35.974Z,51.10
2019-05-13T08:32:35.961Z,51.10
2019-05-13T08:33:35.946Z,50.70
2019-05-13T08:34:36.298Z,51.70
2019-05-13T08:35:35.931Z,51.60
2019-05-13T08:36:39.321Z,50.20
2019-05-13T08:37:35.910Z,50.90
2019-05-13T08:38:35.934Z,50.70
2019-05-13T08:39:38.428Z,51.30
2019-05-13T08:40:35.895Z,50.80
2019-05-13T08:41:35.868Z,50.80
2019-05-13T08:42:35.854Z,49.60
2019-05-13T08:43:35.850Z,50.60
2019-05-13T08:44:35.829Z,50.70
2019-05-13T08:45:35.850Z,49.20
2019-05-13T08:46:35.817Z,50.10
2019-05-13T08:47:35.803Z,49.40
2019-05-13T08:48:35.789Z,48.70
2019-05-13T08:49:35.799Z,50.20
2019-05-13T08:50:35.802Z,49.00
2019-05-13T08:51:35.755Z,49.40
2019-05-13T08:52:35.771Z,47.80
2019-05-13T08:53:35.737Z,49.00
2019-05-13T08:54:35.722Z,47.20
2019-05-13T08:55:35.743Z,48.60
2019-05-13T08:56:35.719Z,48.40
2019-05-13T08:57:35.692Z,48.80
2019-05-13T08:58:35.710Z,48.30
2019-05-13T08:59:35.673Z,47.80
2019-05-13T09:00:35.664Z,46.70
2019-05-13T09:01:35.674Z,47.50
2019-05-13T09:02:35.643Z,47.20
2019-05-13T09:03:35.632Z,46.70
2019-05-13T09:04:35.620Z,46.50
2019-05-13T09:05:35.636Z,47.50
2019-05-13T09:06:35.621Z,45.60
2019-05-13T09:07:35.586Z,47.40
2019-05-13T09:08:35.581Z,48.70
2019-05-13T09:09:35.571Z,45.40
2019-05-13T09:10:35.553Z,46.10
2019-05-13T09:11:35.580Z,47.80
2019-05-13T09:12:38.184Z,45.40
2019-05-13T09:13:35.518Z,46.20
2019-05-13T09:14:35.518Z,44.60
2019-05-13T09:15:35.510Z,45.20
2019-05-13T09:16:35.524Z,44.40
2019-05-13T09:17:35.475Z,43.40
2019-05-13T09:18:35.480Z,44.90
2019-05-13T09:19:35.459Z,45.20
2019-05-13T09:20:35.443Z,44.10
2019-05-13T09:21:35.467Z,43.70
2019-05-13T09:22:35.426Z,44.60
2019-05-13T09:23:35.412Z,44.10
2019-05-13T09:24:37.857Z,43.00
2019-05-13T09:25:35.385Z,44.60
2019-05-13T09:26:35.403Z,42.10
2019-05-13T09:27:35.370Z,43.00
2019-05-13T09:28:35.364Z,44.40
2019-05-13T09:29:35.353Z,44.70
2019-05-13T09:30:35.331Z,42.40
2019-05-13T09:31:35.348Z,42.00
2019-05-13T09:32:35.318Z,39.30
2019-05-13T09:33:35.298Z,40.60
2019-05-13T09:34:35.287Z,39.80
2019-05-13T09:35:35.287Z,39.50
2019-05-13T09:36:35.298Z,37.30
2019-05-13T09:37:35.264Z,37.10
2019-05-13T09:38:35.250Z,38.10
2019-05-13T09:39:35.235Z,38.10
2019-05-13T09:40:35.226Z,35.90
2019-05-13T09:41:40.763Z,36.60
2019-05-13T09:42:48.311Z,36.20
2019-05-13T09:43:36.199Z,35.40
2019-05-13T09:44:35.191Z,33.20
2019-05-13T09:45:35.169Z,32.80
2019-05-13T09:46:35.160Z,30.90
2019-05-13T09:47:35.174Z,33.00
2019-05-13T09:48:35.171Z,31.00
2019-05-13T09:49:35.165Z,30.60
2019-05-13T09:50:36.228Z,30.90
2019-05-13T09:51:35.107Z,30.90
2019-05-13T09:52:35.123Z,30.40
2019-05-13T09:53:35.094Z,29.70
2019-05-13T09:54:35.083Z,29.00
2019-05-13T09:55:35.068Z,27.20
2019-05-13T09:56:35.054Z,26.90
2019-05-13T09:57:35.077Z,26.70
2019-05-13T09:58:35.036Z,25.70
2019-05-13T09:59:35.036Z,25.90
2019-05-13T10:00:35.016Z,25.30
2019-05-13T10:01:35.006Z,25.30
2019-05-13T10:02:35.025Z,24.30
2019-05-13T10:03:52.910Z,23.50
2019-05-13T10:04:35.966Z,22.30
2019-05-13T10:05:34.960Z,21.60
2019-05-13T10:06:34.955Z,21.00
2019-05-13T10:07:34.992Z,20.90
2019-05-13T10:08:34.928Z,21.80
2019-05-13T10:09:34.920Z,19.20
2019-05-13T10:10:34.904Z,20.00
2019-05-13T10:11:34.896Z,19.40
2019-05-13T10:12:34.878Z,19.10
2019-05-13T10:13:34.916Z,19.50
2019-05-13T10:14:34.859Z,18.90
2019-05-13T10:15:34.869Z,17.90
2019-05-13T10:16:34.845Z,17.80
2019-05-13T10:17:34.850Z,18.50
2019-05-13T10:18:34.847Z,21.00
2019-05-13T10:19:34.817Z,23.60
2019-05-13T10:20:34.796Z,36.90
2019-05-13T10:21:34.783Z,39.10
2019-05-13T10:22:34.779Z,45.60
2019-05-13T10:23:34.793Z,47.70
2019-05-13T10:24:34.752Z,54.80
2019-05-13T10:25:34.754Z,57.70
2019-05-13T10:26:34.763Z,60.90
2019-05-13T10:27:34.721Z,65.40
2019-05-13T10:28:34.735Z,63.30
2019-05-13T10:29:34.720Z,67.30
2019-05-13T10:30:34.686Z,69.50
2019-05-13T10:31:34.682Z,73.80
2019-05-13T10:32:34.665Z,72.10
2019-05-13T10:33:34.680Z,74.70
2019-05-13T10:34:34.651Z,74.60
2019-05-13T10:35:34.634Z,71.30
2019-05-13T10:36:34.624Z,71.40
2019-05-13T10:37:34.621Z,73.20
2019-05-13T10:38:34.625Z,71.90
2019-05-13T10:39:51.120Z,72.70
2019-05-13T10:40:34.579Z,70.60
2019-05-13T10:41:34.566Z,71.30
2019-05-13T10:42:34.559Z,69.20
2019-05-13T10:43:40.047Z,66.20
2019-05-13T10:44:35.546Z,68.10
2019-05-13T10:45:34.523Z,66.90
2019-05-13T10:46:34.517Z,65.10
2019-05-13T10:47:34.502Z,63.80
2019-05-13T10:48:34.515Z,65.50
2019-05-13T10:49:34.491Z,62.80
2019-05-13T10:50:34.473Z,61.90
2019-05-13T10:51:34.464Z,62.30
2019-05-13T10:52:34.452Z,61.20
2019-05-13T10:53:34.518Z,59.60
2019-05-13T10:54:35.250Z,58.40
2019-05-13T10:55:34.423Z,59.60
2019-05-13T10:56:34.409Z,57.80
2019-05-13T10:57:34.396Z,56.60
2019-05-13T10:58:34.392Z,54.60
2019-05-13T10:59:34.404Z,55.50
2019-05-13T11:00:34.364Z,53.60
2019-05-13T11:01:34.368Z,51.50
2019-05-13T11:02:34.353Z,50.40
2019-05-13T11:03:34.360Z,49.90
2019-05-13T11:04:34.345Z,48.60
2019-05-13T11:05:34.308Z,47.30
2019-05-13T11:06:34.310Z,47.80
2019-05-13T11:07:34.288Z,46.80
2019-05-13T11:08:34.278Z,45.70
2019-05-13T11:09:34.295Z,45.40
2019-05-13T11:10:34.254Z,43.70
2019-05-13T11:11:34.246Z,42.90
2019-05-13T11:12:34.238Z,40.70
2019-05-13T11:13:50.855Z,41.50
2019-05-13T11:14:35.244Z,40.70
2019-05-13T11:15:40.803Z,38.80
2019-05-13T11:16:35.194Z,37.90
2019-05-13T11:17:34.191Z,38.10
2019-05-13T11:18:34.178Z,36.70
2019-05-13T11:19:36.950Z,37.50
2019-05-13T11:20:34.144Z,35.80
2019-05-13T11:21:34.135Z,34.60
2019-05-13T11:22:34.124Z,33.80
2019-05-13T11:23:34.118Z,33.10
2019-05-13T11:24:34.140Z,30.90
2019-05-13T11:25:34.121Z,29.30
2019-05-13T11:26:36.358Z,29.40
2019-05-13T11:27:34.075Z,27.50
2019-05-13T11:28:34.075Z,27.70
2019-05-13T11:29:34.053Z,26.10
2019-05-13T11:30:34.073Z,25.40
2019-05-13T11:31:34.045Z,24.20
2019-05-13T11:32:34.028Z,23.70
2019-05-13T11:33:34.009Z,23.50
2019-05-13T11:34:34.000Z,21.60
2019-05-13T11:35:34.018Z,21.10
2019-05-13T11:36:33.981Z,20.40
2019-05-13T11:37:33.980Z,18.70
2019-05-13T11:38:33.953Z,18.80
2019-05-13T11:39:33.943Z,18.70
2019-05-13T11:40:33.963Z,18.80
2019-05-13T11:41:33.922Z,16.40
2019-05-13T11:42:33.921Z,17.40
2019-05-13T11:43:33.908Z,17.10
2019-05-13T11:44:33.900Z,16.80
2019-05-13T11:45:33.904Z,16.20
2019-05-13T11:46:33.869Z,15.60
2019-05-13T11:47:33.864Z,15.10
2019-05-13T11:48:33.849Z,14.70
2019-05-13T11:49:33.847Z,14.90
2019-05-13T11:50:33.880Z,13.50
2019-05-13T11:51:33.819Z,13.30
2019-05-13T11:52:33.805Z,13.00
2019-05-13T11:53:37.173Z,12.90
2019-05-13T11:54:33.784Z,11.80
2019-05-13T11:55:33.821Z,11.60
2019-05-13T11:56:33.978Z,11.60
2019-05-13T11:57:33.748Z,11.80
2019-05-13T11:58:33.740Z,11.90
2019-05-13T11:59:33.731Z,11.90
2019-05-13T12:00:33.724Z,10.80
2019-05-13T12:01:33.782Z,10.10
2019-05-13T12:02:33.697Z,10.80
2019-05-13T12:03:33.684Z,10.20
2019-05-13T12:04:34.889Z,10.40
2019-05-13T12:05:33.694Z,9.60
2019-05-13T12:06:34.237Z,10.10
2019-05-13T12:07:33.645Z,9.60
2019-05-13T12:08:34.313Z,9.10
2019-05-13T12:09:33.622Z,9.20
2019-05-13T12:10:33.627Z,9.00
2019-05-13T12:11:33.624Z,9.30
2019-05-13T12:12:34.630Z,8.60
2019-05-13T12:13:33.587Z,8.90
2019-05-13T12:14:44.144Z,7.60
2019-05-13T12:15:45.954Z,8.10
2019-05-13T12:16:35.168Z,7.60
2019-05-13T12:17:34.094Z,6.80
2019-05-13T12:18:33.628Z,6.80
2019-05-13T12:19:33.516Z,6.50
2019-05-13T12:20:33.504Z,7.20
2019-05-13T12:21:41.171Z,6.40
2019-05-13T12:22:34.480Z,6.20
2019-05-13T12:23:33.472Z,6.00
2019-05-13T12:24:33.466Z,6.50
2019-05-13T12:25:33.600Z,6.00
2019-05-13T12:26:33.493Z,5.70
2019-05-13T12:27:33.426Z,5.70
2019-05-13T12:28:33.427Z,5.70
2019-05-13T12:29:33.401Z,5.20
2019-05-13T12:30:33.915Z,5.00
2019-05-13T12:31:33.820Z,5.20
2019-05-13T12:32:33.378Z,5.40
2019-05-13T12:33:33.362Z,4.80
2019-05-13T12:34:40.541Z,4.90
2019-05-13T12:35:34.340Z,4.80
2019-05-13T12:36:33.355Z,4.60
2019-05-13T12:37:33.658Z,4.70
2019-05-13T12:38:33.646Z,4.40
2019-05-13T12:39:33.297Z,4.90
2019-05-13T12:40:34.036Z,4.00
2019-05-13T12:41:33.327Z,4.00
2019-05-13T12:42:33.986Z,4.70